sensor_id;sensor_type;location;lat;lon;timestamp;pressure;altitude;pressure_sealevel;temperature;humidity
76086;BME280;64791;0.000;0.000;2023-05-28T00:02:05;93716.78;;;11.43;82.38
76086;BME280;64791;0.000;0.000;2023-05-28T00:04:31;93724.16;;;11.41;83.20
76086;BME280;64791;0.000;0.000;2023-05-28T00:06:57;93722.31;;;11.36;83.99
76086;BME280;64791;0.000;0.000;2023-05-28T00:09:22;93723.44;;;11.32;83.70
76086;BME280;64791;0.000;0.000;2023-05-28T00:11:48;93721.22;;;11.31;84.04
76086;BME280;64791;0.000;0.000;2023-05-28T00:14:14;93722.34;;;11.28;85.10
76086;BME280;64791;0.000;0.000;2023-05-28T00:16:39;93721.25;;;11.23;85.68
76086;BME280;64791;0.000;0.000;2023-05-28T00:19:06;93714.63;;;11.19;86.93
76086;BME280;64791;0.000;0.000;2023-05-28T00:21:32;93710.97;;;11.16;86.46
76086;BME280;64791;0.000;0.000;2023-05-28T00:23:59;93712.97;;;11.16;86.57
76086;BME280;64791;0.000;0.000;2023-05-28T00:26:25;93709.47;;;11.15;86.78
76086;BME280;64791;0.000;0.000;2023-05-28T00:28:54;93708.03;;;11.14;86.95
76086;BME280;64791;0.000;0.000;2023-05-28T00:31:19;93704.69;;;11.16;87.00
76086;BME280;64791;0.000;0.000;2023-05-28T00:33:45;93704.69;;;11.16;87.36
76086;BME280;64791;0.000;0.000;2023-05-28T00:36:13;93696.63;;;11.10;87.64
76086;BME280;64791;0.000;0.000;2023-05-28T00:38:39;93701.59;;;11.59;86.80
76086;BME280;64791;0.000;0.000;2023-05-28T00:41:05;93693.31;;;11.59;85.78
76086;BME280;64791;0.000;0.000;2023-05-28T00:43:31;93691.53;;;11.47;85.76
76086;BME280;64791;0.000;0.000;2023-05-28T00:45:58;93683.09;;;11.37;86.04
76086;BME280;64791;0.000;0.000;2023-05-28T00:48:24;93683.53;;;11.26;86.39
76086;BME280;64791;0.000;0.000;2023-05-28T00:50:50;93691.06;;;11.18;87.29
76086;BME280;64791;0.000;0.000;2023-05-28T00:53:16;93690.38;;;11.10;87.62
76086;BME280;64791;0.000;0.000;2023-05-28T00:55:42;93688.16;;;11.08;87.80
76086;BME280;64791;0.000;0.000;2023-05-28T00:58:09;93676.78;;;11.04;87.92
76086;BME280;64791;0.000;0.000;2023-05-28T01:00:35;93675.69;;;11.00;88.12
76086;BME280;64791;0.000;0.000;2023-05-28T01:03:01;93674.75;;;10.97;88.07
76086;BME280;64791;0.000;0.000;2023-05-28T01:05:26;93692.78;;;10.98;88.20
76086;BME280;64791;0.000;0.000;2023-05-28T01:07:52;93686.19;;;10.94;88.65
76086;BME280;64791;0.000;0.000;2023-05-28T01:10:18;93680.09;;;10.95;88.00
76086;BME280;64791;0.000;0.000;2023-05-28T01:12:43;93667.06;;;10.96;88.03
76086;BME280;64791;0.000;0.000;2023-05-28T01:15:09;93672.75;;;10.98;87.87
76086;BME280;64791;0.000;0.000;2023-05-28T01:17:36;93675.88;;;11.02;87.48
76086;BME280;64791;0.000;0.000;2023-05-28T01:20:04;93675.28;;;11.03;87.40
76086;BME280;64791;0.000;0.000;2023-05-28T01:22:40;93684.50;;;11.06;87.17
76086;BME280;64791;0.000;0.000;2023-05-28T01:25:11;93687.81;;;11.04;87.21
76086;BME280;64791;0.000;0.000;2023-05-28T01:27:41;93687.47;;;11.00;87.82
76086;BME280;64791;0.000;0.000;2023-05-28T01:30:07;93685.19;;;11.14;87.25
76086;BME280;64791;0.000;0.000;2023-05-28T01:32:37;93677.50;;;11.05;86.96
76086;BME280;64791;0.000;0.000;2023-05-28T01:35:06;93676.59;;;11.02;87.09
76086;BME280;64791;0.000;0.000;2023-05-28T01:37:36;93677.31;;;11.03;87.18
76086;BME280;64791;0.000;0.000;2023-05-28T01:40:03;93672.94;;;11.00;87.44
76086;BME280;64791;0.000;0.000;2023-05-28T01:42:29;93679.19;;;11.00;87.97
76086;BME280;64791;0.000;0.000;2023-05-28T01:44:55;93664.81;;;11.02;87.45
76086;BME280;64791;0.000;0.000;2023-05-28T01:47:22;93655.44;;;10.97;88.04
76086;BME280;64791;0.000;0.000;2023-05-28T01:49:48;93661.19;;;10.92;88.04
76086;BME280;64791;0.000;0.000;2023-05-28T01:52:13;93657.50;;;10.89;87.89
76086;BME280;64791;0.000;0.000;2023-05-28T01:54:39;93666.50;;;10.90;87.69
76086;BME280;64791;0.000;0.000;2023-05-28T01:57:05;93660.09;;;10.87;87.89
76086;BME280;64791;0.000;0.000;2023-05-28T01:59:31;93657.31;;;10.87;87.76
76086;BME280;64791;0.000;0.000;2023-05-28T02:01:58;93658.03;;;10.88;87.54
76086;BME280;64791;0.000;0.000;2023-05-28T02:04:23;93657.50;;;10.89;87.32
76086;BME280;64791;0.000;0.000;2023-05-28T02:06:49;93667.78;;;10.89;87.62
76086;BME280;64791;0.000;0.000;2023-05-28T02:09:15;93668.91;;;10.93;87.10
76086;BME280;64791;0.000;0.000;2023-05-28T02:11:41;93665.56;;;10.95;87.83
76086;BME280;64791;0.000;0.000;2023-05-28T02:14:07;93667.22;;;10.98;87.33
76086;BME280;64791;0.000;0.000;2023-05-28T02:16:33;93674.03;;;10.97;87.44
76086;BME280;64791;0.000;0.000;2023-05-28T02:19:01;93671.84;;;10.95;87.66
76086;BME280;64791;0.000;0.000;2023-05-28T02:21:26;93667.22;;;10.98;87.71
76086;BME280;64791;0.000;0.000;2023-05-28T02:23:53;93673.47;;;10.98;87.84
76086;BME280;64791;0.000;0.000;2023-05-28T02:26:19;93670.69;;;10.98;86.99
76086;BME280;64791;0.000;0.000;2023-05-28T02:28:45;93662.44;;;10.98;87.11
76086;BME280;64791;0.000;0.000;2023-05-28T02:31:11;93664.47;;;10.98;87.56
76086;BME280;64791;0.000;0.000;2023-05-28T02:33:37;93671.25;;;10.97;87.54
76086;BME280;64791;0.000;0.000;2023-05-28T02:36:03;93672.41;;;10.94;87.52
76086;BME280;64791;0.000;0.000;2023-05-28T02:38:29;93672.41;;;10.94;87.75
76086;BME280;64791;0.000;0.000;2023-05-28T02:40:55;93675.34;;;10.96;87.61
76086;BME280;64791;0.000;0.000;2023-05-28T02:43:21;93670.69;;;10.98;87.69
76086;BME280;64791;0.000;0.000;2023-05-28T02:45:47;93671.63;;;11.01;87.51
76086;BME280;64791;0.000;0.000;2023-05-28T02:48:13;93681.00;;;11.05;87.23
76086;BME280;64791;0.000;0.000;2023-05-28T02:50:38;93683.41;;;11.09;87.30
76086;BME280;64791;0.000;0.000;2023-05-28T02:53:23;93682.25;;;11.12;87.38
76086;BME280;64791;0.000;0.000;2023-05-28T02:55:49;93678.75;;;11.11;87.50
76086;BME280;64791;0.000;0.000;2023-05-28T02:58:15;93682.63;;;11.16;87.67
76086;BME280;64791;0.000;0.000;2023-05-28T03:00:41;93689.03;;;11.26;86.92
76086;BME280;64791;0.000;0.000;2023-05-28T03:03:08;93692.88;;;11.30;86.71
76086;BME280;64791;0.000;0.000;2023-05-28T03:05:35;93680.75;;;11.26;87.06
76086;BME280;64791;0.000;0.000;2023-05-28T03:08:01;93681.13;;;11.22;87.14
76086;BME280;64791;0.000;0.000;2023-05-28T03:10:27;93681.50;;;11.19;87.42
76086;BME280;64791;0.000;0.000;2023-05-28T03:12:52;93680.59;;;11.16;87.08
76086;BME280;64791;0.000;0.000;2023-05-28T03:15:18;93685.38;;;11.16;87.00
76086;BME280;64791;0.000;0.000;2023-05-28T03:17:44;93679.84;;;11.16;86.95
76086;BME280;64791;0.000;0.000;2023-05-28T03:20:10;93690.53;;;11.19;87.30
76086;BME280;64791;0.000;0.000;2023-05-28T03:22:37;93689.97;;;11.21;87.20
76086;BME280;64791;0.000;0.000;2023-05-28T03:25:03;93691.81;;;11.26;86.99
76086;BME280;64791;0.000;0.000;2023-05-28T03:27:30;93691.97;;;11.28;87.47
76086;BME280;64791;0.000;0.000;2023-05-28T03:29:56;93679.28;;;11.25;87.95
76086;BME280;64791;0.000;0.000;2023-05-28T03:32:30;93685.38;;;11.23;86.96
76086;BME280;64791;0.000;0.000;2023-05-28T03:34:55;93685.72;;;11.27;87.09
76086;BME280;64791;0.000;0.000;2023-05-28T03:37:27;93692.34;;;11.32;86.83
76086;BME280;64791;0.000;0.000;2023-05-28T03:39:53;93683.66;;;11.36;87.05
76086;BME280;64791;0.000;0.000;2023-05-28T03:42:18;93688.63;;;11.37;87.39
76086;BME280;64791;0.000;0.000;2023-05-28T03:44:44;93691.38;;;11.37;87.75
76086;BME280;64791;0.000;0.000;2023-05-28T03:47:11;93686.03;;;11.39;87.28
76086;BME280;64791;0.000;0.000;2023-05-28T03:49:37;93693.19;;;11.50;87.54
76086;BME280;64791;0.000;0.000;2023-05-28T03:52:03;93689.09;;;11.58;87.25
76086;BME280;64791;0.000;0.000;2023-05-28T03:54:39;93692.03;;;11.60;87.19
76086;BME280;64791;0.000;0.000;2023-05-28T03:57:05;93689.63;;;11.64;87.02
76086;BME280;64791;0.000;0.000;2023-05-28T03:59:33;93688.13;;;11.63;87.11
76086;BME280;64791;0.000;0.000;2023-05-28T04:01:59;93690.38;;;11.65;86.69
76086;BME280;64791;0.000;0.000;2023-05-28T04:04:24;93695.50;;;11.68;87.04
76086;BME280;64791;0.000;0.000;2023-05-28T04:06:50;93690.72;;;11.69;86.16
76086;BME280;64791;0.000;0.000;2023-05-28T04:09:15;93700.28;;;11.68;86.81
76086;BME280;64791;0.000;0.000;2023-05-28T04:11:42;93693.84;;;11.65;86.46
76086;BME280;64791;0.000;0.000;2023-05-28T04:14:11;93692.00;;;11.68;86.81
76086;BME280;64791;0.000;0.000;2023-05-28T04:16:37;93696.22;;;11.69;86.65
76086;BME280;64791;0.000;0.000;2023-05-28T04:19:02;93691.06;;;11.65;86.60
76086;BME280;64791;0.000;0.000;2023-05-28T04:21:28;93703.22;;;11.70;86.87
76086;BME280;64791;0.000;0.000;2023-05-28T04:23:54;93702.78;;;11.81;85.84
76086;BME280;64791;0.000;0.000;2023-05-28T04:26:20;93702.78;;;11.81;85.82
76086;BME280;64791;0.000;0.000;2023-05-28T04:28:47;93707.56;;;11.80;86.38
76086;BME280;64791;0.000;0.000;2023-05-28T04:31:13;93700.19;;;11.83;86.33
76086;BME280;64791;0.000;0.000;2023-05-28T04:33:39;93705.34;;;11.86;86.38
76086;BME280;64791;0.000;0.000;2023-05-28T04:36:06;93701.78;;;11.93;86.52
76086;BME280;64791;0.000;0.000;2023-05-28T04:38:33;93701.78;;;12.01;86.12
76086;BME280;64791;0.000;0.000;2023-05-28T04:40:59;93705.41;;;12.11;86.21
76086;BME280;64791;0.000;0.000;2023-05-28T04:43:30;93710.38;;;12.13;86.02
76086;BME280;64791;0.000;0.000;2023-05-28T04:45:56;93702.03;;;12.20;85.80
76086;BME280;64791;0.000;0.000;2023-05-28T04:48:24;93702.25;;;12.15;85.61
76086;BME280;64791;0.000;0.000;2023-05-28T04:50:51;93703.16;;;12.17;85.50
76086;BME280;64791;0.000;0.000;2023-05-28T04:53:16;93693.69;;;12.28;85.49
76086;BME280;64791;0.000;0.000;2023-05-28T04:55:43;93700.69;;;12.29;84.86
76086;BME280;64791;0.000;0.000;2023-05-28T04:58:09;93705.09;;;12.32;85.36
76086;BME280;64791;0.000;0.000;2023-05-28T05:00:36;93708.00;;;12.34;84.94
76086;BME280;64791;0.000;0.000;2023-05-28T05:03:01;93710.78;;;12.34;84.80
76086;BME280;64791;0.000;0.000;2023-05-28T05:05:27;93711.69;;;12.36;85.12
76086;BME280;64791;0.000;0.000;2023-05-28T05:07:53;93711.19;;;12.30;85.08
76086;BME280;64791;0.000;0.000;2023-05-28T05:10:19;93701.81;;;12.26;84.91
76086;BME280;64791;0.000;0.000;2023-05-28T05:12:46;93704.38;;;12.31;85.03
76086;BME280;64791;0.000;0.000;2023-05-28T05:15:12;93707.31;;;12.33;84.52
76086;BME280;64791;0.000;0.000;2023-05-28T05:17:37;93699.34;;;12.37;84.76
76086;BME280;64791;0.000;0.000;2023-05-28T05:20:03;93699.97;;;12.53;84.25
76086;BME280;64791;0.000;0.000;2023-05-28T05:22:30;93698.81;;;12.56;84.76
76086;BME280;64791;0.000;0.000;2023-05-28T05:24:56;93697.28;;;12.62;84.74
76086;BME280;64791;0.000;0.000;2023-05-28T05:27:21;93698.41;;;12.59;85.02
76086;BME280;64791;0.000;0.000;2023-05-28T05:29:47;93705.09;;;12.56;85.04
76086;BME280;64791;0.000;0.000;2023-05-28T05:32:13;93701.13;;;12.42;84.92
76086;BME280;64791;0.000;0.000;2023-05-28T05:34:39;93701.28;;;12.44;85.08
76086;BME280;64791;0.000;0.000;2023-05-28T05:37:43;93706.66;;;12.42;84.75
76086;BME280;64791;0.000;0.000;2023-05-28T05:40:47;93698.78;;;12.39;85.22
76086;BME280;64791;0.000;0.000;2023-05-28T05:43:31;93700.75;;;12.46;84.92
76086;BME280;64791;0.000;0.000;2023-05-28T05:45:56;93705.09;;;12.56;85.11
76086;BME280;64791;0.000;0.000;2023-05-28T05:48:25;93705.44;;;12.60;85.13
76086;BME280;64791;0.000;0.000;2023-05-28T05:50:50;93706.28;;;12.46;85.01
76086;BME280;64791;0.000;0.000;2023-05-28T05:53:17;93708.47;;;12.47;84.57
76086;BME280;64791;0.000;0.000;2023-05-28T05:55:42;93708.06;;;12.51;84.34
76086;BME280;64791;0.000;0.000;2023-05-28T05:58:08;93719.09;;;12.58;83.78
76086;BME280;64791;0.000;0.000;2023-05-28T06:00:34;93710.72;;;12.66;84.26
76086;BME280;64791;0.000;0.000;2023-05-28T06:03:00;93707.00;;;12.71;84.54
76086;BME280;64791;0.000;0.000;2023-05-28T06:05:44;93709.19;;;12.72;84.14
76086;BME280;64791;0.000;0.000;2023-05-28T06:08:28;93712.13;;;12.74;84.12
76086;BME280;64791;0.000;0.000;2023-05-28T06:10:58;93715.47;;;12.73;84.02
76086;BME280;64791;0.000;0.000;2023-05-28T06:13:24;93717.81;;;12.76;84.25
76086;BME280;64791;0.000;0.000;2023-05-28T06:15:50;93714.00;;;12.72;85.16
76086;BME280;64791;0.000;0.000;2023-05-28T06:18:15;93719.13;;;12.75;85.04
76086;BME280;64791;0.000;0.000;2023-05-28T06:20:41;93726.88;;;12.77;84.37
76086;BME280;64791;0.000;0.000;2023-05-28T06:23:07;93723.16;;;12.82;84.56
76086;BME280;64791;0.000;0.000;2023-05-28T06:25:33;93725.66;;;12.88;84.63
76086;BME280;64791;0.000;0.000;2023-05-28T06:28:01;93718.84;;;12.89;85.25
76086;BME280;64791;0.000;0.000;2023-05-28T06:30:26;93721.63;;;13.06;85.15
76086;BME280;64791;0.000;0.000;2023-05-28T06:32:52;93729.53;;;13.09;83.34
76086;BME280;64791;0.000;0.000;2023-05-28T06:35:18;93723.75;;;13.15;83.55
76086;BME280;64791;0.000;0.000;2023-05-28T06:37:43;93726.94;;;13.28;83.40
76086;BME280;64791;0.000;0.000;2023-05-28T06:40:09;93721.53;;;13.38;83.05
76086;BME280;64791;0.000;0.000;2023-05-28T06:42:36;93718.59;;;13.53;82.47
76086;BME280;64791;0.000;0.000;2023-05-28T06:45:18;93725.00;;;13.73;81.85
76086;BME280;64791;0.000;0.000;2023-05-28T06:47:44;93726.88;;;13.70;80.57
76086;BME280;64791;0.000;0.000;2023-05-28T06:50:10;93737.69;;;13.76;81.98
76086;BME280;64791;0.000;0.000;2023-05-28T06:52:36;93734.84;;;13.83;81.56
76086;BME280;64791;0.000;0.000;2023-05-28T06:55:01;93727.84;;;13.65;81.35
76086;BME280;64791;0.000;0.000;2023-05-28T06:57:34;93728.09;;;13.77;80.58
76086;BME280;64791;0.000;0.000;2023-05-28T07:00:24;93739.53;;;14.07;80.67
76086;BME280;64791;0.000;0.000;2023-05-28T07:03:08;93730.72;;;14.01;79.99
76086;BME280;64791;0.000;0.000;2023-05-28T07:05:54;93727.28;;;14.10;80.53
76086;BME280;64791;0.000;0.000;2023-05-28T07:08:20;93731.25;;;14.17;81.02
76086;BME280;64791;0.000;0.000;2023-05-28T07:10:46;93735.47;;;14.35;80.22
76086;BME280;64791;0.000;0.000;2023-05-28T07:13:12;93726.50;;;14.54;79.76
76086;BME280;64791;0.000;0.000;2023-05-28T07:15:38;93714.19;;;14.74;78.88
76086;BME280;64791;0.000;0.000;2023-05-28T07:18:05;93722.75;;;15.24;77.95
76086;BME280;64791;0.000;0.000;2023-05-28T07:20:31;93710.94;;;16.00;75.66
76086;BME280;64791;0.000;0.000;2023-05-28T07:23:04;93717.72;;;15.68;73.84
76086;BME280;64791;0.000;0.000;2023-05-28T07:25:30;93716.25;;;16.45;73.90
76086;BME280;64791;0.000;0.000;2023-05-28T07:27:56;93721.16;;;16.76;72.49
76086;BME280;64791;0.000;0.000;2023-05-28T07:30:30;93718.47;;;17.08;71.03
76086;BME280;64791;0.000;0.000;2023-05-28T07:32:59;93707.84;;;16.95;70.77
76086;BME280;64791;0.000;0.000;2023-05-28T07:35:26;93705.38;;;17.20;70.28
76086;BME280;64791;0.000;0.000;2023-05-28T07:37:54;93713.09;;;17.74;69.78
76086;BME280;64791;0.000;0.000;2023-05-28T07:40:21;93704.38;;;17.58;68.74
76086;BME280;64791;0.000;0.000;2023-05-28T07:42:48;93706.16;;;17.11;70.29
76086;BME280;64791;0.000;0.000;2023-05-28T07:45:14;93714.13;;;17.05;71.22
76086;BME280;64791;0.000;0.000;2023-05-28T07:47:41;93712.88;;;17.18;70.37
76086;BME280;64791;0.000;0.000;2023-05-28T07:50:21;93708.53;;;16.25;71.42
76086;BME280;64791;0.000;0.000;2023-05-28T07:52:55;93706.66;;;16.68;70.95
76086;BME280;64791;0.000;0.000;2023-05-28T07:55:21;93709.53;;;16.79;71.17
76086;BME280;64791;0.000;0.000;2023-05-28T07:57:47;93705.47;;;16.71;71.86
76086;BME280;64791;0.000;0.000;2023-05-28T08:00:13;93697.69;;;17.00;70.96
76086;BME280;64791;0.000;0.000;2023-05-28T08:02:53;93701.25;;;17.42;69.85
76086;BME280;64791;0.000;0.000;2023-05-28T08:05:24;93702.81;;;17.55;68.77
76086;BME280;64791;0.000;0.000;2023-05-28T08:07:51;93703.25;;;17.73;68.11
76086;BME280;64791;0.000;0.000;2023-05-28T08:10:17;93707.84;;;17.47;69.45
76086;BME280;64791;0.000;0.000;2023-05-28T08:12:42;93705.59;;;16.82;70.48
76086;BME280;64791;0.000;0.000;2023-05-28T08:15:08;93708.03;;;16.88;71.96
76086;BME280;64791;0.000;0.000;2023-05-28T08:17:35;93710.63;;;16.95;68.89
76086;BME280;64791;0.000;0.000;2023-05-28T08:20:09;93710.13;;;17.08;68.94
76086;BME280;64791;0.000;0.000;2023-05-28T08:22:45;93713.34;;;17.35;67.63
76086;BME280;64791;0.000;0.000;2023-05-28T08:25:11;93718.34;;;17.58;68.39
76086;BME280;64791;0.000;0.000;2023-05-28T08:27:37;93711.66;;;18.17;67.27
76086;BME280;64791;0.000;0.000;2023-05-28T08:30:03;93707.75;;;18.55;66.87
76086;BME280;64791;0.000;0.000;2023-05-28T08:32:31;93707.31;;;18.81;65.07
76086;BME280;64791;0.000;0.000;2023-05-28T08:34:57;93705.44;;;18.63;60.60
76086;BME280;64791;0.000;0.000;2023-05-28T08:37:23;93705.59;;;18.76;62.89
76086;BME280;64791;0.000;0.000;2023-05-28T08:40:05;93701.69;;;18.47;63.59
76086;BME280;64791;0.000;0.000;2023-05-28T08:42:35;93711.41;;;17.80;63.72
76086;BME280;64791;0.000;0.000;2023-05-28T08:45:02;93708.13;;;17.84;64.77
76086;BME280;64791;0.000;0.000;2023-05-28T08:47:32;93700.72;;;18.09;64.83
76086;BME280;64791;0.000;0.000;2023-05-28T08:50:11;93712.03;;;18.23;65.36
76086;BME280;64791;0.000;0.000;2023-05-28T08:52:50;93703.00;;;18.46;64.25
76086;BME280;64791;0.000;0.000;2023-05-28T08:55:18;93701.69;;;18.70;63.42
76086;BME280;64791;0.000;0.000;2023-05-28T08:57:48;93705.94;;;19.17;60.21
76086;BME280;64791;0.000;0.000;2023-05-28T09:00:14;93706.50;;;19.62;61.66
76086;BME280;64791;0.000;0.000;2023-05-28T09:03:15;93703.78;;;19.76;59.57
76086;BME280;64791;0.000;0.000;2023-05-28T09:05:41;93699.06;;;19.67;57.74
76086;BME280;64791;0.000;0.000;2023-05-28T09:08:08;93698.50;;;19.45;59.66
76086;BME280;64791;0.000;0.000;2023-05-28T09:10:34;93701.94;;;19.09;60.65
76086;BME280;64791;0.000;0.000;2023-05-28T09:13:00;93697.59;;;18.94;62.54
76086;BME280;64791;0.000;0.000;2023-05-28T09:15:26;93706.22;;;18.98;62.93
76086;BME280;64791;0.000;0.000;2023-05-28T09:17:53;93702.53;;;19.19;63.04
76086;BME280;64791;0.000;0.000;2023-05-28T09:20:23;93699.88;;;19.32;61.94
76086;BME280;64791;0.000;0.000;2023-05-28T09:23:07;93700.09;;;19.36;61.67
76086;BME280;64791;0.000;0.000;2023-05-28T09:25:57;93699.13;;;19.43;61.01
76086;BME280;64791;0.000;0.000;2023-05-28T09:28:30;93698.81;;;19.74;60.26
76086;BME280;64791;0.000;0.000;2023-05-28T09:31:05;93702.09;;;20.07;59.93
76086;BME280;64791;0.000;0.000;2023-05-28T09:33:35;93697.78;;;20.43;58.80
76086;BME280;64791;0.000;0.000;2023-05-28T09:36:02;93698.66;;;20.59;58.06
76086;BME280;64791;0.000;0.000;2023-05-28T09:38:41;93697.59;;;20.53;58.20
76086;BME280;64791;0.000;0.000;2023-05-28T09:41:22;93698.09;;;20.24;58.37
76086;BME280;64791;0.000;0.000;2023-05-28T09:43:58;93700.94;;;19.87;57.98
76086;BME280;64791;0.000;0.000;2023-05-28T09:46:30;93708.41;;;19.23;57.79
76086;BME280;64791;0.000;0.000;2023-05-28T09:48:56;93704.03;;;18.73;59.04
76086;BME280;64791;0.000;0.000;2023-05-28T09:51:27;93714.53;;;18.40;61.80
76086;BME280;64791;0.000;0.000;2023-05-28T09:53:58;93708.25;;;18.51;60.42
76086;BME280;64791;0.000;0.000;2023-05-28T09:56:28;93707.88;;;18.57;60.91
76086;BME280;64791;0.000;0.000;2023-05-28T09:59:01;93707.34;;;18.37;60.04
76086;BME280;64791;0.000;0.000;2023-05-28T10:01:31;93708.88;;;18.17;60.67
76086;BME280;64791;0.000;0.000;2023-05-28T10:04:01;93709.06;;;17.98;61.55
76086;BME280;64791;0.000;0.000;2023-05-28T10:06:30;93711.38;;;18.01;61.62
76086;BME280;64791;0.000;0.000;2023-05-28T10:08:58;93713.22;;;18.08;61.43
76086;BME280;64791;0.000;0.000;2023-05-28T10:11:25;93706.66;;;18.37;61.35
76086;BME280;64791;0.000;0.000;2023-05-28T10:13:54;93714.66;;;18.42;60.69
76086;BME280;64791;0.000;0.000;2023-05-28T10:16:20;93709.16;;;18.33;61.31
76086;BME280;64791;0.000;0.000;2023-05-28T10:18:46;93708.09;;;18.38;60.27
76086;BME280;64791;0.000;0.000;2023-05-28T10:21:12;93709.44;;;18.48;61.67
76086;BME280;64791;0.000;0.000;2023-05-28T10:23:42;93706.09;;;18.73;60.37
76086;BME280;64791;0.000;0.000;2023-05-28T10:26:08;93712.63;;;18.89;60.66
76086;BME280;64791;0.000;0.000;2023-05-28T10:28:35;93704.75;;;19.20;58.38
76086;BME280;64791;0.000;0.000;2023-05-28T10:31:06;93704.25;;;19.24;59.93
76086;BME280;64791;0.000;0.000;2023-05-28T10:33:41;93698.38;;;19.54;59.40
76086;BME280;64791;0.000;0.000;2023-05-28T10:36:11;93699.03;;;19.78;58.75
76086;BME280;64791;0.000;0.000;2023-05-28T10:41:18;93695.88;;;20.09;58.02
76086;BME280;64791;0.000;0.000;2023-05-28T10:43:45;93695.09;;;19.83;57.31
76086;BME280;64791;0.000;0.000;2023-05-28T10:51:45;93698.78;;;19.14;60.67
76086;BME280;64791;0.000;0.000;2023-05-28T10:57:07;93691.13;;;19.26;61.80
76086;BME280;64791;0.000;0.000;2023-05-28T11:00:22;93688.72;;;19.69;61.57
76086;BME280;64791;0.000;0.000;2023-05-28T11:02:23;93678.44;;;19.48;58.77
76086;BME280;64791;0.000;0.000;2023-05-28T11:04:53;93682.03;;;19.62;58.88
76086;BME280;64791;0.000;0.000;2023-05-28T11:07:20;93673.88;;;19.67;59.09
76086;BME280;64791;0.000;0.000;2023-05-28T11:09:49;93678.41;;;19.60;59.88
76086;BME280;64791;0.000;0.000;2023-05-28T11:12:16;93670.28;;;19.89;59.47
76086;BME280;64791;0.000;0.000;2023-05-28T11:14:41;93674.97;;;20.49;58.70
76086;BME280;64791;0.000;0.000;2023-05-28T11:17:10;93674.91;;;20.74;58.78
76086;BME280;64791;0.000;0.000;2023-05-28T11:19:45;93669.13;;;21.10;57.23
76086;BME280;64791;0.000;0.000;2023-05-28T11:22:12;93666.34;;;21.24;55.82
76086;BME280;64791;0.000;0.000;2023-05-28T11:24:56;93661.75;;;21.31;54.87
76086;BME280;64791;0.000;0.000;2023-05-28T11:27:29;93668.50;;;20.85;55.30
76086;BME280;64791;0.000;0.000;2023-05-28T11:29:57;93669.34;;;20.49;56.39
76086;BME280;64791;0.000;0.000;2023-05-28T11:32:23;93667.31;;;20.24;56.42
76086;BME280;64791;0.000;0.000;2023-05-28T11:34:49;93665.63;;;19.94;57.29
76086;BME280;64791;0.000;0.000;2023-05-28T11:37:15;93666.13;;;19.53;57.10
76086;BME280;64791;0.000;0.000;2023-05-28T11:39:50;93667.31;;;19.62;58.54
76086;BME280;64791;0.000;0.000;2023-05-28T11:42:16;93669.53;;;19.63;58.60
76086;BME280;64791;0.000;0.000;2023-05-28T11:44:43;93665.22;;;19.74;57.67
76086;BME280;64791;0.000;0.000;2023-05-28T11:47:10;93674.00;;;19.69;58.40
76086;BME280;64791;0.000;0.000;2023-05-28T11:49:36;93671.06;;;19.18;57.99
76086;BME280;64791;0.000;0.000;2023-05-28T11:52:02;93675.91;;;19.18;58.19
76086;BME280;64791;0.000;0.000;2023-05-28T11:54:28;93679.78;;;19.36;58.33
76086;BME280;64791;0.000;0.000;2023-05-28T11:56:53;93680.34;;;18.86;57.90
76086;BME280;64791;0.000;0.000;2023-05-28T11:59:22;93683.63;;;18.71;58.60
76086;BME280;64791;0.000;0.000;2023-05-28T12:02:08;93676.31;;;18.66;58.51
76086;BME280;64791;0.000;0.000;2023-05-28T12:04:34;93670.59;;;18.64;58.61
76086;BME280;64791;0.000;0.000;2023-05-28T12:07:00;93670.22;;;19.04;59.18
76086;BME280;64791;0.000;0.000;2023-05-28T12:09:26;93665.88;;;19.01;57.99
76086;BME280;64791;0.000;0.000;2023-05-28T12:12:10;93662.41;;;19.37;57.50
76086;BME280;64791;0.000;0.000;2023-05-28T12:14:37;93660.38;;;20.25;57.07
76086;BME280;64791;0.000;0.000;2023-05-28T12:17:08;93663.53;;;20.83;55.44
76086;BME280;64791;0.000;0.000;2023-05-28T12:19:34;93666.72;;;21.59;53.75
76086;BME280;64791;0.000;0.000;2023-05-28T12:22:01;93655.69;;;22.06;53.69
76086;BME280;64791;0.000;0.000;2023-05-28T12:24:27;93659.84;;;21.76;52.05
76086;BME280;64791;0.000;0.000;2023-05-28T12:26:53;93661.13;;;21.88;52.85
76086;BME280;64791;0.000;0.000;2023-05-28T12:29:19;93654.16;;;21.60;51.29
76086;BME280;64791;0.000;0.000;2023-05-28T12:31:44;93665.00;;;21.11;52.65
76086;BME280;64791;0.000;0.000;2023-05-28T12:34:10;93660.25;;;21.57;54.07
76086;BME280;64791;0.000;0.000;2023-05-28T12:36:36;93666.22;;;21.63;54.11
76086;BME280;64791;0.000;0.000;2023-05-28T12:39:02;93667.63;;;21.77;52.16
76086;BME280;64791;0.000;0.000;2023-05-28T12:41:29;93671.81;;;21.49;51.87
76086;BME280;64791;0.000;0.000;2023-05-28T12:43:54;93660.19;;;21.41;51.04
76086;BME280;64791;0.000;0.000;2023-05-28T12:46:20;93663.59;;;21.53;51.39
76086;BME280;64791;0.000;0.000;2023-05-28T12:48:46;93659.50;;;21.70;53.07
76086;BME280;64791;0.000;0.000;2023-05-28T12:51:11;93646.59;;;21.78;51.49
76086;BME280;64791;0.000;0.000;2023-05-28T12:53:37;93653.03;;;21.81;52.10
76086;BME280;64791;0.000;0.000;2023-05-28T12:56:03;93650.09;;;21.63;52.38
76086;BME280;64791;0.000;0.000;2023-05-28T12:58:29;93651.44;;;21.62;52.28
76086;BME280;64791;0.000;0.000;2023-05-28T13:00:55;93643.91;;;21.80;50.46
76086;BME280;64791;0.000;0.000;2023-05-28T13:03:21;93636.00;;;21.77;50.53
76086;BME280;64791;0.000;0.000;2023-05-28T13:05:47;93630.09;;;21.71;51.86
76086;BME280;64791;0.000;0.000;2023-05-28T13:08:14;93628.47;;;21.95;51.03
76086;BME280;64791;0.000;0.000;2023-05-28T13:10:40;93630.72;;;22.43;53.12
76086;BME280;64791;0.000;0.000;2023-05-28T13:13:06;93610.22;;;23.19;50.86
76086;BME280;64791;0.000;0.000;2023-05-28T13:15:31;93601.31;;;23.75;50.76
76086;BME280;64791;0.000;0.000;2023-05-28T13:17:57;93600.84;;;23.98;49.91
76086;BME280;64791;0.000;0.000;2023-05-28T13:20:23;93601.06;;;23.69;48.94
76086;BME280;64791;0.000;0.000;2023-05-28T13:22:49;93600.09;;;23.63;48.71
76086;BME280;64791;0.000;0.000;2023-05-28T13:25:15;93601.81;;;23.36;49.18
76086;BME280;64791;0.000;0.000;2023-05-28T13:27:40;93594.34;;;22.94;50.10